Mirandopolis, Brazil
Current Conditions -  °F | °C
As of 2:00 PM on Thursday 29 Jan 2015 (Local Time) from SBDN Reporting Station
Broken Clouds Broken Clouds  
Wind Chill: 88°   Ceiling: 10000
Heat Index: 91°   Visibility: 6mi
Dew Point: 68°   Wind: 9mph
Humidity: 52%   Direction: 320°NW
Pressure: NA   Gusts: 21mph
Location:  21.13°S, 51.11°W
Report Text: SBDN 291600Z 32008G18KT 9999 SCT030 FEW040TCU BKN100 31/20 Q1014
Loading
Personal Weather Stations






























Interactive Weather Map New forecast layout! Learn more

10-Day Weather Forecast

Advertisements
Track Severe Weather on mobile